East Swanzey, New Hampshire
Current Conditions -  °F | °C
As of 8:35 PM on Thursday 18 Dec 2014 (Local Time) from KEEN Reporting Station
Overcast Overcast  
Wind Chill: 30°   Ceiling: 2700
Heat Index: 36°   Visibility: 10mi
Dew Point: 25°   Wind: 7mph
Humidity: 65%   Direction: 330°NNW
Pressure: 29.86"   Gusts: NA
Location:  42.8618°N, 72.2452°W
Report Text: KEEN 190135Z AUTO 33006KT 10SM OVC027 02/M04 A2986 RMK AO1
Loading
Personal Weather Stations






























Interactive Weather Map New forecast layout! Learn more

10-Day Weather Forecast

Advertisements
Track Severe Weather on mobile